Polaris, Montana
Current Conditions -  °F | °C
As of 10:53 AM on Friday 28 Nov 2014 (Local Time) from KDLN Reporting Station
Few Clouds Few Clouds  
Wind Chill: 51°   Ceiling: Unl
Heat Index: 51°   Visibility: 10mi
Dew Point: 24°   Wind: 15mph
Humidity: 35%   Direction: 230°SW
Pressure: 29.73"   Gusts: 20mph
Location:  45.37°N, 113.12°W
Report Text: KDLN 281753Z AUTO 23013G17KT 10SM FEW110 11/M04 A2973 RMK AO2 SLP041 T01061044 10106 20050 56007
Loading
Personal Weather Stations






























Interactive Weather Map New forecast layout! Learn more

10-Day Weather Forecast

Advertisements
Track Severe Weather on mobile